Observation data for Haskell on 06/19/2019      Previous  Date  Next       Current Mesonet Observations  Soil Data  Daily Summary Page  Observations in Plain Language
KHA1 190500Z 30024G33KT 23/15 A2991 RMK A01 T02340152  RH  063%=      5-min Rain = 0
KHA1 190505Z 31027G33KT 24/15 A2991 RMK A01 T02420145  RH  057%=      5-min Rain = 0
KHA1 190510Z 30025G31KT 25/14 A2991 RMK A01 T02520137  RH  051%=      5-min Rain = 0
KHA1 190515Z 31024G29KT 25/14 A2991 RMK A01 T02540136  RH  050%=      5-min Rain = 0
KHA1 190520Z 32023G31KT 25/14 A299 RMK A01 T02510138  RH  052%=      5-min Rain = 0
KHA1 190525Z 32018G24KT 25/15 A299 RMK A01 T02450148  RH  057%=      5-min Rain = 0
KHA1 190530Z 32015G28KT 24/15 A2989 RMK A01 T02380151  RH  061%=      5-min Rain = 0
KHA1 190535Z 29021G35KT 26/13 A2988 RMK A01 T02610127  RH  046%=      5-min Rain = 0.01
KHA1 190540Z 28017G22KT 27/13 A2988 RMK A01 T02700127  RH  043%=      5-min Rain = 0
KHA1 190545Z 27019G32KT 27/13 A2987 RMK A01 T02710125  RH  042%=      5-min Rain = 0
KHA1 190550Z 24019G26KT 29/11 A2986 RMK A01 T02860110  RH  035%=      5-min Rain = 0
KHA1 190555Z 22022G29KT 27/12 A2985 RMK A01 T02730122  RH  041%=      5-min Rain = 0
KHA1 190600Z 20023G29KT 28/12 A2984 RMK A01 T02770115  RH  038%=      5-min Rain = 0
KHA1 190605Z 20020G28KT 27/12 A2984 RMK A01 T02730124  RH  041%=      5-min Rain = 0
KHA1 190610Z 20019G27KT 27/12 A2984 RMK A01 T02740118  RH  039%=      5-min Rain = 0
KHA1 190615Z 21018G25KT 29/11 A2985 RMK A01 T02870110  RH  034%=      5-min Rain = 0
KHA1 190620Z 21021G28KT 28/11 A2985 RMK A01 T02830113  RH  036%=      5-min Rain = 0
KHA1 190625Z 21021G31KT 28/12 A2986 RMK A01 T02770119  RH  039%=      5-min Rain = 0
KHA1 190630Z 21025G35KT 27/12 A2985 RMK A01 T02730120  RH  040%=      5-min Rain = 0
KHA1 190635Z 22027G39KT 26/14 A2986 RMK A01 T02570136  RH  049%=      5-min Rain = 0
KHA1 190640Z 22026G33KT 25/14 A2986 RMK A01 T02450140  RH  054%=      5-min Rain = 0
KHA1 190645Z 22031G38KT 23/15 A2985 RMK A01 T02330145  RH  060%=      5-min Rain = 0
KHA1 190650Z 22029G35KT 23/15 A2986 RMK A01 T02290146  RH  062%=      5-min Rain = 0
KHA1 190655Z 22026G35KT 23/15 A2987 RMK A01 T02260146  RH  063%=      5-min Rain = 0
KHA1 190700Z 21024G31KT 23/15 A2987 RMK A01 T02260145  RH  063%=      5-min Rain = 0.01
KHA1 190705Z 21020KT 23/15 A2986 RMK A01 T02270146  RH  063%=      5-min Rain = 0
KHA1 190710Z 21018G24KT 23/15 A2984 RMK A01 T02280145  RH  062%=      5-min Rain = 0.01
KHA1 190720Z 18014G19KT 24/14 A2978 RMK A01 T02350138  RH  057%=      5-min Rain = 0
KHA1 190725Z 17013KT 24/14 A2977 RMK A01 T02420135  RH  053%=      5-min Rain = 0
KHA1 190730Z 18010G15KT 25/13 A2977 RMK A01 T02500132  RH  050%=      5-min Rain = 0
KHA1 190735Z 21009KT 25/14 A2977 RMK A01 T02460136  RH  052%=      5-min Rain = 0
KHA1 190740Z 18011KT 25/13 A2976 RMK A01 T02500132  RH  050%=      5-min Rain = 0
KHA1 190745Z 20010KT 26/13 A2976 RMK A01 T02550129  RH  048%=      5-min Rain = 0
KHA1 190750Z 23010G16KT 26/13 A2977 RMK A01 T02550127  RH  047%=      5-min Rain = 0
KHA1 190755Z 20008KT 26/13 A2977 RMK A01 T02610127  RH  045%=      5-min Rain = 0
KHA1 190800Z 21008KT 25/13 A2977 RMK A01 T02530131  RH  049%=      5-min Rain = 0
KHA1 190805Z 21004KT 26/12 A2977 RMK A01 T02590123  RH  045%=      5-min Rain = 0
KHA1 190810Z 20004KT 27/12 A2977 RMK A01 T02670117  RH  041%=      5-min Rain = 0
KHA1 190815Z 20005KT 27/12 A2977 RMK A01 T02650123  RH  043%=      5-min Rain = 0
KHA1 190820Z 23004KT 26/14 A2977 RMK A01 T02560136  RH  049%=      5-min Rain = 0
KHA1 190825Z 25003KT 25/14 A2978 RMK A01 T02490137  RH  052%=      5-min Rain = 0
KHA1 190830Z 34010G22KT 24/16 A2979 RMK A01 T02400157  RH  063%=      5-min Rain = 0
KHA1 190835Z 34020G28KT 23/15 A2981 RMK A01 T02340152  RH  063%=      5-min Rain = 0
KHA1 190840Z 34019G24KT 23/15 A2982 RMK A01 T02290153  RH  065%=      5-min Rain = 0
KHA1 190845Z 34015KT 23/15 A2982 RMK A01 T02270153  RH  066%=      5-min Rain = 0
KHA1 190850Z 34012KT 23/15 A2982 RMK A01 T02260153  RH  066%=      5-min Rain = 0
KHA1 190855Z 35011KT 23/15 A2982 RMK A01 T02250154  RH  067%=      5-min Rain = 0
KHA1 190900Z 35010KT 22/16 A2982 RMK A01 T02220156  RH  069%=      5-min Rain = 0
KHA1 190905Z 35009KT 22/16 A2982 RMK A01 T02200157  RH  071%=      5-min Rain = 0
KHA1 190910Z 35008KT 22/16 A2982 RMK A01 T02190158  RH  072%=      5-min Rain = 0
KHA1 190915Z 00006KT 22/16 A2982 RMK A01 T02170160  RH  073%=      5-min Rain = 0
KHA1 190920Z 07005KT 22/16 A2983 RMK A01 T02150161  RH  075%=      5-min Rain = 0
KHA1 190925Z 08002KT 22/16 A2983 RMK A01 T02160159  RH  073%=      5-min Rain = 0
KHA1 190930Z 09002KT 22/16 A2982 RMK A01 T02180156  RH  071%=      5-min Rain = 0
KHA1 190935Z 01000KT 22/16 A2983 RMK A01 T02180160  RH  073%=      5-min Rain = 0
KHA1 190940Z 05000KT 21/17 A2984 RMK A01 T02120167  RH  079%=      5-min Rain = 0
KHA1 190945Z 08003KT 21/16 A2984 RMK A01 T02090162  RH  078%=      5-min Rain = 0
KHA1 190950Z 10003KT 21/16 A2984 RMK A01 T02110161  RH  077%=      5-min Rain = 0
KHA1 190955Z 10007KT 22/15 A2984 RMK A01 T02180151  RH  069%=      5-min Rain = 0
KHA1 191000Z 07008KT 23/15 A2985 RMK A01 T02260147  RH  064%=      5-min Rain = 0
KHA1 191005Z 07007KT 22/15 A2985 RMK A01 T02230148  RH  065%=      5-min Rain = 0
KHA1 191010Z 09006G11KT 22/15 A2985 RMK A01 T02200149  RH  067%=      5-min Rain = 0
KHA1 191015Z 11007KT 22/15 A2986 RMK A01 T02210147  RH  066%=      5-min Rain = 0
KHA1 191020Z 10006KT 22/15 A2985 RMK A01 T02220148  RH  066%=      5-min Rain = 0
KHA1 191025Z 06008KT 21/15 A2985 RMK A01 T02140153  RH  071%=      5-min Rain = 0
KHA1 191030Z 09008KT 21/15 A2984 RMK A01 T02130151  RH  071%=      5-min Rain = 0
KHA1 191035Z 11008KT 22/15 A2984 RMK A01 T02180150  RH  068%=      5-min Rain = 0
KHA1 191040Z 11007KT 22/15 A2983 RMK A01 T02200148  RH  067%=      5-min Rain = 0
KHA1 191045Z 09005KT 22/15 A2984 RMK A01 T02190149  RH  067%=      5-min Rain = 0
KHA1 191050Z 07005KT 21/15 A2984 RMK A01 T02140153  RH  071%=      5-min Rain = 0
KHA1 191055Z 08003KT 21/15 A2984 RMK A01 T02090153  RH  073%=      5-min Rain = 0
KHA1 191100Z 11003KT 21/15 A2983 RMK A01 T02090153  RH  074%=      5-min Rain = 0
KHA1 191105Z 10002KT 21/15 A2983 RMK A01 T02090152  RH  073%=      5-min Rain = 0
KHA1 191110Z 07003KT 21/16 A2983 RMK A01 T02060155  RH  076%=      5-min Rain = 0
KHA1 191115Z 08002KT 20/15 A2983 RMK A01 T02030154  RH  077%=      5-min Rain = 0
KHA1 191120Z 08002KT 20/15 A2984 RMK A01 T02020154  RH  077%=      5-min Rain = 0
KHA1 191125Z 07001KT 20/15 A2984 RMK A01 T02010154  RH  078%=      5-min Rain = 0
KHA1 191130Z 05000KT 20/16 A2984 RMK A01 T01990160  RH  082%=      5-min Rain = 0
KHA1 191135Z 07002KT 20/16 A2984 RMK A01 T01960161  RH  084%=      5-min Rain = 0
KHA1 191140Z 06003KT 20/16 A2984 RMK A01 T01980157  RH  081%=      5-min Rain = 0
KHA1 191145Z 08002KT 20/16 A2984 RMK A01 T02010156  RH  079%=      5-min Rain = 0
KHA1 191150Z 10004KT 20/16 A2984 RMK A01 T02030157  RH  078%=      5-min Rain = 0
KHA1 191155Z 11004KT 21/16 A2984 RMK A01 T02060157  RH  077%=      5-min Rain = 0
KHA1 191200Z 12003KT 20/16 A2984 RMK A01 T02040157  RH  078%=      5-min Rain = 0
KHA1 191205Z 10004KT 20/16 A2984 RMK A01 T02040158  RH  079%=      5-min Rain = 0
KHA1 191210Z 10004KT 21/16 A2984 RMK A01 T02050159  RH  079%=      5-min Rain = 0
KHA1 191215Z 09003KT 21/16 A2984 RMK A01 T02050160  RH  079%=      5-min Rain = 0
KHA1 191220Z 10002KT 21/16 A2984 RMK A01 T02060162  RH  079%=      5-min Rain = 0
KHA1 191225Z 10002KT 21/16 A2985 RMK A01 T02090162  RH  079%=      5-min Rain = 0
KHA1 191230Z 08003KT 21/16 A2985 RMK A01 T02120163  RH  077%=      5-min Rain = 0
KHA1 191235Z 07003KT 21/17 A2984 RMK A01 T02130166  RH  078%=      5-min Rain = 0
KHA1 191240Z 09004KT 21/17 A2984 RMK A01 T02140167  RH  078%=      5-min Rain = 0
KHA1 191245Z 11004KT 22/17 A2984 RMK A01 T02150165  RH  077%=      5-min Rain = 0
KHA1 191250Z 12006KT 21/16 A2984 RMK A01 T02130164  RH  077%=      5-min Rain = 0
KHA1 191255Z 12006KT 21/17 A2983 RMK A01 T02140166  RH  078%=      5-min Rain = 0
KHA1 191300Z 11004KT 22/17 A2983 RMK A01 T02160166  RH  077%=      5-min Rain = 0
KHA1 191305Z 12006KT 22/17 A2983 RMK A01 T02180166  RH  076%=      5-min Rain = 0
KHA1 191310Z 12006KT 22/17 A2983 RMK A01 T02180167  RH  076%=      5-min Rain = 0
KHA1 191315Z 14006KT 22/17 A2983 RMK A01 T02180167  RH  076%=      5-min Rain = 0
KHA1 191320Z 15006KT 22/17 A2983 RMK A01 T02190167  RH  076%=      5-min Rain = 0
KHA1 191325Z 17006KT 22/17 A2983 RMK A01 T02220168  RH  075%=      5-min Rain = 0
KHA1 191330Z 17006KT 23/17 A2983 RMK A01 T02250168  RH  074%=      5-min Rain = 0
KHA1 191335Z 16006KT 23/17 A2983 RMK A01 T02250168  RH  074%=      5-min Rain = 0
KHA1 191340Z 17006KT 23/17 A2983 RMK A01 T02270170  RH  074%=      5-min Rain = 0
KHA1 191345Z 17006KT 23/17 A2984 RMK A01 T02280169  RH  073%=      5-min Rain = 0
KHA1 191350Z 17007KT 23/17 A2984 RMK A01 T02290169  RH  072%=      5-min Rain = 0
KHA1 191355Z 16005KT 23/17 A2984 RMK A01 T02320169  RH  071%=      5-min Rain = 0
KHA1 191400Z 18006KT 24/17 A2984 RMK A01 T02360169  RH  069%=      5-min Rain = 0
KHA1 191405Z 17006KT 24/17 A2984 RMK A01 T02370168  RH  069%=      5-min Rain = 0
KHA1 191410Z 18007KT 24/17 A2984 RMK A01 T02360168  RH  069%=      5-min Rain = 0
KHA1 191415Z 18008KT 24/17 A2983 RMK A01 T02390170  RH  068%=      5-min Rain = 0
KHA1 191420Z 18008KT 24/17 A2983 RMK A01 T02410168  RH  067%=      5-min Rain = 0
KHA1 191425Z 18007KT 24/17 A2983 RMK A01 T02430171  RH  067%=      5-min Rain = 0
KHA1 191430Z 19009KT 25/17 A2983 RMK A01 T02460171  RH  066%=      5-min Rain = 0
KHA1 191435Z 19009KT 25/17 A2983 RMK A01 T02480172  RH  066%=      5-min Rain = 0
KHA1 191440Z 19006KT 25/17 A2983 RMK A01 T02490174  RH  067%=      5-min Rain = 0
KHA1 191445Z 18007KT 25/18 A2982 RMK A01 T02510176  RH  066%=      5-min Rain = 0
KHA1 191450Z 18006KT 25/18 A2982 RMK A01 T02520177  RH  066%=      5-min Rain = 0
KHA1 191455Z 19006KT 26/17 A2982 RMK A01 T02610174  RH  062%=      5-min Rain = 0
KHA1 191500Z 17005G10KT 26/17 A2982 RMK A01 T02590171  RH  061%=      5-min Rain = 0
KHA1 191505Z 20007KT 26/17 A2982 RMK A01 T02620167  RH  059%=      5-min Rain = 0
KHA1 191510Z 18007KT 26/17 A2982 RMK A01 T02620170  RH  060%=      5-min Rain = 0
KHA1 191515Z 19007KT 27/17 A2982 RMK A01 T02650172  RH  059%=      5-min Rain = 0
KHA1 191520Z 16006KT 27/17 A2982 RMK A01 T02670172  RH  059%=      5-min Rain = 0
KHA1 191525Z 15006KT 27/18 A2982 RMK A01 T02650176  RH  061%=      5-min Rain = 0
KHA1 191530Z 17006KT 27/18 A2981 RMK A01 T02690177  RH  060%=      5-min Rain = 0
KHA1 191535Z 18009KT 27/18 A2981 RMK A01 T02700178  RH  060%=      5-min Rain = 0
KHA1 191540Z 18010KT 27/18 A2981 RMK A01 T02710179  RH  060%=      5-min Rain = 0
KHA1 191545Z 18010KT 27/18 A2981 RMK A01 T02730181  RH  060%=      5-min Rain = 0
KHA1 191550Z 19009KT 28/18 A2981 RMK A01 T02770181  RH  059%=      5-min Rain = 0
KHA1 191555Z 19009KT 28/18 A298 RMK A01 T02790182  RH  059%=      5-min Rain = 0
KHA1 191600Z 18008G14KT 28/19 A298 RMK A01 T02820185  RH  059%=      5-min Rain = 0
KHA1 191605Z 18011KT 28/19 A298 RMK A01 T02830186  RH  059%=      5-min Rain = 0
KHA1 191610Z 19010KT 28/19 A298 RMK A01 T02840187  RH  059%=      5-min Rain = 0
KHA1 191615Z 20011KT 29/19 A298 RMK A01 T02860188  RH  059%=      5-min Rain = 0
KHA1 191620Z 20010KT 29/19 A298 RMK A01 T02920191  RH  058%=      5-min Rain = 0
KHA1 191625Z 20012KT 29/19 A298 RMK A01 T02920189  RH  057%=      5-min Rain = 0
KHA1 191630Z 19009KT 29/19 A298 RMK A01 T02900190  RH  058%=      5-min Rain = 0
KHA1 191635Z 20008KT 29/19 A298 RMK A01 T02930190  RH  057%=      5-min Rain = 0
KHA1 191640Z 22009KT 30/19 A298 RMK A01 T02970190  RH  056%=      5-min Rain = 0
KHA1 191645Z 22011KT 30/19 A298 RMK A01 T02960188  RH  055%=      5-min Rain = 0
KHA1 191650Z 23009KT 30/19 A298 RMK A01 T02980187  RH  054%=      5-min Rain = 0
KHA1 191655Z 20010KT 30/19 A2979 RMK A01 T03010190  RH  054%=      5-min Rain = 0
KHA1 191700Z 22011KT 30/19 A2979 RMK A01 T02980189  RH  055%=      5-min Rain = 0
KHA1 191705Z 22011G16KT 30/19 A2979 RMK A01 T03010188  RH  054%=      5-min Rain = 0
KHA1 191710Z 22009G15KT 30/19 A2979 RMK A01 T03010190  RH  054%=      5-min Rain = 0
KHA1 191715Z 23009G14KT 30/19 A2979 RMK A01 T03020189  RH  053%=      5-min Rain = 0
KHA1 191720Z 23009KT 30/19 A2979 RMK A01 T03020187  RH  053%=      5-min Rain = 0
KHA1 191725Z 23009KT 31/19 A2979 RMK A01 T03070187  RH  051%=      5-min Rain = 0
KHA1 191730Z 22009KT 31/19 A2979 RMK A01 T03090188  RH  051%=      5-min Rain = 0
KHA1 191735Z 23009KT 31/18 A2979 RMK A01 T03090183  RH  049%=      5-min Rain = 0
KHA1 191740Z 24009KT 31/18 A2979 RMK A01 T03110184  RH  049%=      5-min Rain = 0
KHA1 191745Z 25007G13KT 31/18 A2979 RMK A01 T03100182  RH  049%=      5-min Rain = 0
KHA1 191750Z 25009KT 31/18 A2979 RMK A01 T03100184  RH  049%=      5-min Rain = 0
KHA1 191755Z 23006KT 31/18 A2979 RMK A01 T03100182  RH  049%=      5-min Rain = 0
KHA1 191800Z 25008KT 31/18 A2979 RMK A01 T03130182  RH  048%=      5-min Rain = 0
KHA1 191805Z 28010G15KT 31/18 A2979 RMK A01 T03140183  RH  048%=      5-min Rain = 0
KHA1 191810Z 28010KT 31/18 A2979 RMK A01 T03130182  RH  048%=      5-min Rain = 0
KHA1 191815Z 27010KT 31/18 A2979 RMK A01 T03120181  RH  048%=      5-min Rain = 0
KHA1 191820Z 26009G14KT 31/18 A298 RMK A01 T03140180  RH  047%=      5-min Rain = 0
KHA1 191825Z 30007KT 31/18 A298 RMK A01 T03110181  RH  049%=      5-min Rain = 0
KHA1 191830Z 26008KT 31/19 A298 RMK A01 T03130185  RH  049%=      5-min Rain = 0
KHA1 191835Z 24008G13KT 31/19 A298 RMK A01 T03140185  RH  049%=      5-min Rain = 0
KHA1 191840Z 24007KT 32/19 A2979 RMK A01 T03150186  RH  049%=      5-min Rain = 0
KHA1 191845Z 26009KT 32/19 A2979 RMK A01 T03170187  RH  049%=      5-min Rain = 0
KHA1 191850Z 27007KT 32/19 A2979 RMK A01 T03160186  RH  049%=      5-min Rain = 0
KHA1 191855Z 26004KT 32/18 A2979 RMK A01 T03160184  RH  048%=      5-min Rain = 0
KHA1 191900Z 29008KT 32/19 A2979 RMK A01 T03160185  RH  048%=      5-min Rain = 0
KHA1 191905Z 25007G17KT 32/19 A2978 RMK A01 T03210185  RH  047%=      5-min Rain = 0
KHA1 191910Z 26008KT 32/19 A2978 RMK A01 T03210185  RH  047%=      5-min Rain = 0
KHA1 191915Z 25007KT 32/19 A2978 RMK A01 T03230185  RH  046%=      5-min Rain = 0
KHA1 191920Z 29006KT 32/19 A2978 RMK A01 T03240187  RH  047%=      5-min Rain = 0
KHA1 191925Z 25006KT 32/19 A2978 RMK A01 T03220185  RH  047%=      5-min Rain = 0
KHA1 191930Z 30007KT 32/18 A2978 RMK A01 T03180184  RH  047%=      5-min Rain = 0
KHA1 191935Z 32004KT 32/19 A2978 RMK A01 T03190185  RH  047%=      5-min Rain = 0
KHA1 191940Z 30006G11KT 32/18 A2978 RMK A01 T03190184  RH  047%=      5-min Rain = 0
KHA1 191945Z 29007KT 32/19 A2978 RMK A01 T03200185  RH  047%=      5-min Rain = 0
KHA1 191950Z 23005KT 32/18 A2978 RMK A01 T03200184  RH  047%=      5-min Rain = 0
KHA1 191955Z 30005KT 32/18 A2978 RMK A01 T03190183  RH  047%=      5-min Rain = 0
KHA1 192000Z 29006KT 32/18 A2978 RMK A01 T03190183  RH  047%=      5-min Rain = 0
KHA1 192005Z 27003KT 32/19 A2978 RMK A01 T03220185  RH  047%=      5-min Rain = 0
KHA1 192010Z 36004KT 32/19 A2977 RMK A01 T03230187  RH  047%=      5-min Rain = 0
KHA1 192015Z 33004KT 32/19 A2977 RMK A01 T03210185  RH  047%=      5-min Rain = 0
KHA1 192020Z 26004KT 32/19 A2977 RMK A01 T03230185  RH  046%=      5-min Rain = 0
KHA1 192025Z 20002KT 32/19 A2977 RMK A01 T03240185  RH  046%=      5-min Rain = 0
KHA1 192030Z 30005KT 33/19 A2977 RMK A01 T03250187  RH  046%=      5-min Rain = 0
KHA1 192035Z 26004KT 33/19 A2976 RMK A01 T03270189  RH  046%=      5-min Rain = 0
KHA1 192040Z 27004G9KT 33/19 A2976 RMK A01 T03290186  RH  045%=      5-min Rain = 0
KHA1 192045Z 27005G10KT 33/19 A2976 RMK A01 T03300187  RH  045%=      5-min Rain = 0
KHA1 192050Z 29003KT 33/19 A2976 RMK A01 T03280186  RH  046%=      5-min Rain = 0
KHA1 192055Z 26005KT 33/19 A2976 RMK A01 T03280185  RH  045%=      5-min Rain = 0
KHA1 192100Z 23006KT 33/19 A2976 RMK A01 T03310185  RH  044%=      5-min Rain = 0
KHA1 192105Z 22004KT 33/18 A2976 RMK A01 T03300183  RH  044%=      5-min Rain = 0
KHA1 192110Z 26005KT 33/19 A2975 RMK A01 T03340185  RH  044%=      5-min Rain = 0
KHA1 192115Z 29004G9KT 33/18 A2975 RMK A01 T03300184  RH  044%=      5-min Rain = 0
KHA1 192120Z 32002KT 33/19 A2975 RMK A01 T03300186  RH  045%=      5-min Rain = 0
KHA1 192125Z 34002KT 33/19 A2975 RMK A01 T03320187  RH  045%=      5-min Rain = 0
KHA1 192130Z 26004KT 33/19 A2975 RMK A01 T03330187  RH  045%=      5-min Rain = 0
KHA1 192135Z 26005KT 34/19 A2975 RMK A01 T03350186  RH  044%=      5-min Rain = 0
KHA1 192140Z 23001KT 34/19 A2975 RMK A01 T03360187  RH  044%=      5-min Rain = 0
KHA1 192145Z 26006KT 34/18 A2975 RMK A01 T03370183  RH  042%=      5-min Rain = 0
KHA1 192150Z 23002KT 33/18 A2975 RMK A01 T03330183  RH  044%=      5-min Rain = 0
KHA1 192155Z 22005KT 33/18 A2974 RMK A01 T03330182  RH  043%=      5-min Rain = 0
KHA1 192200Z 25005KT 33/18 A2974 RMK A01 T03340183  RH  043%=      5-min Rain = 0
KHA1 192205Z 25004G9KT 34/18 A2974 RMK A01 T03380183  RH  042%=      5-min Rain = 0
KHA1 192210Z 19002KT 33/18 A2974 RMK A01 T03340183  RH  043%=      5-min Rain = 0
KHA1 192215Z 26004KT 33/18 A2974 RMK A01 T03290184  RH  045%=      5-min Rain = 0
KHA1 192220Z 24006KT 32/19 A2974 RMK A01 T03240186  RH  047%=      5-min Rain = 0
KHA1 192225Z 24003KT 32/19 A2974 RMK A01 T03220186  RH  047%=      5-min Rain = 0
KHA1 192230Z 24001KT 32/19 A2974 RMK A01 T03220185  RH  047%=      5-min Rain = 0
KHA1 192235Z 26003KT 32/19 A2974 RMK A01 T03220189  RH  048%=      5-min Rain = 0
KHA1 192240Z 23005KT 32/19 A2974 RMK A01 T03200188  RH  048%=      5-min Rain = 0
KHA1 192245Z 27004KT 32/19 A2974 RMK A01 T03200186  RH  048%=      5-min Rain = 0
KHA1 192250Z 26005KT 32/19 A2974 RMK A01 T03200185  RH  047%=      5-min Rain = 0
KHA1 192255Z 27004KT 32/19 A2974 RMK A01 T03190186  RH  048%=      5-min Rain = 0
KHA1 192300Z 28004KT 32/19 A2974 RMK A01 T03200190  RH  049%=      5-min Rain = 0
KHA1 192305Z 31006KT 32/19 A2973 RMK A01 T03210190  RH  048%=      5-min Rain = 0
KHA1 192310Z 32007KT 33/19 A2973 RMK A01 T03250186  RH  046%=      5-min Rain = 0
KHA1 192315Z 32005KT 32/19 A2973 RMK A01 T03230185  RH  046%=      5-min Rain = 0
KHA1 192320Z 33006KT 32/19 A2973 RMK A01 T03220186  RH  047%=      5-min Rain = 0
KHA1 192325Z 32006KT 32/19 A2973 RMK A01 T03210186  RH  047%=      5-min Rain = 0
KHA1 192330Z 30004KT 32/19 A2973 RMK A01 T03200186  RH  048%=      5-min Rain = 0
KHA1 192335Z 30005KT 32/19 A2973 RMK A01 T03180186  RH  048%=      5-min Rain = 0
KHA1 192340Z 29003KT 32/19 A2973 RMK A01 T03180189  RH  049%=      5-min Rain = 0
KHA1 192345Z 30003KT 32/19 A2973 RMK A01 T03200187  RH  048%=      5-min Rain = 0
KHA1 192350Z 33003KT 33/19 A2972 RMK A01 T03270188  RH  046%=      5-min Rain = 0
KHA1 192355Z 33004KT 33/19 A2973 RMK A01 T03290186  RH  045%=      5-min Rain = 0
KHA1 200000Z 34005KT 33/19 A2972 RMK A01 T03290186  RH  045%=      5-min Rain = 0
KHA1 200005Z 33004KT 33/19 A2972 RMK A01 T03260185  RH  046%=      5-min Rain = 0
KHA1 200010Z 33002KT 33/19 A2972 RMK A01 T03270187  RH  046%=      5-min Rain = 0
KHA1 200015Z 01002KT 33/19 A2971 RMK A01 T03310188  RH  045%=      5-min Rain = 0
KHA1 200020Z 03003KT 32/19 A2971 RMK A01 T03240189  RH  048%=      5-min Rain = 0
KHA1 200025Z 35004KT 33/19 A297 RMK A01 T03250187  RH  047%=      5-min Rain = 0
KHA1 200030Z 36006KT 33/19 A2971 RMK A01 T03250185  RH  046%=      5-min Rain = 0
KHA1 200035Z 02006KT 32/19 A2971 RMK A01 T03220189  RH  048%=      5-min Rain = 0
KHA1 200040Z 02005KT 32/19 A2971 RMK A01 T03200188  RH  048%=      5-min Rain = 0
KHA1 200045Z 03004KT 32/19 A2971 RMK A01 T03190190  RH  049%=      5-min Rain = 0
KHA1 200050Z 01004KT 32/19 A2971 RMK A01 T03180186  RH  048%=      5-min Rain = 0
KHA1 200055Z 01006KT 32/19 A2971 RMK A01 T03180187  RH  048%=      5-min Rain = 0
KHA1 200100Z 36005KT 32/19 A2971 RMK A01 T03190186  RH  048%=      5-min Rain = 0
KHA1 200105Z 35004KT 32/19 A297 RMK A01 T03190185  RH  048%=      5-min Rain = 0
KHA1 200110Z 36005KT 32/19 A2971 RMK A01 T03180187  RH  048%=      5-min Rain = 0
KHA1 200115Z 35003KT 32/19 A2971 RMK A01 T03170186  RH  048%=      5-min Rain = 0
KHA1 200120Z 33001KT 32/19 A2971 RMK A01 T03180186  RH  048%=      5-min Rain = 0
KHA1 200125Z 19001KT 32/19 A297 RMK A01 T03160192  RH  051%=      5-min Rain = 0
KHA1 200130Z 17003KT 30/20 A2971 RMK A01 T03030201  RH  058%=      5-min Rain = 0
KHA1 200135Z 13001KT 30/20 A2971 RMK A01 T02970200  RH  059%=      5-min Rain = 0
KHA1 200140Z 09003KT 30/20 A2971 RMK A01 T02960204  RH  061%=      5-min Rain = 0
KHA1 200145Z 07004KT 30/20 A2972 RMK A01 T02960201  RH  060%=      5-min Rain = 0
KHA1 200150Z 09004KT 30/20 A2972 RMK A01 T02950202  RH  061%=      5-min Rain = 0
KHA1 200155Z 10004KT 29/20 A2973 RMK A01 T02940200  RH  060%=      5-min Rain = 0
KHA1 200200Z 10004KT 29/20 A2973 RMK A01 T02940197  RH  059%=      5-min Rain = 0
KHA1 200205Z 10004KT 29/20 A2973 RMK A01 T02940196  RH  059%=      5-min Rain = 0
KHA1 200210Z 10004KT 29/20 A2973 RMK A01 T02940196  RH  059%=      5-min Rain = 0
KHA1 200215Z 09004KT 29/20 A2973 RMK A01 T02930196  RH  059%=      5-min Rain = 0
KHA1 200220Z 08004KT 29/20 A2973 RMK A01 T02920196  RH  060%=      5-min Rain = 0
KHA1 200225Z 08005KT 29/20 A2973 RMK A01 T02880197  RH  061%=      5-min Rain = 0
KHA1 200230Z 09005KT 28/20 A2973 RMK A01 T02830199  RH  064%=      5-min Rain = 0
KHA1 200235Z 09004KT 28/20 A2973 RMK A01 T02840199  RH  064%=      5-min Rain = 0
KHA1 200240Z 09005KT 28/20 A2973 RMK A01 T02820200  RH  064%=      5-min Rain = 0
KHA1 200245Z 08005KT 28/20 A2973 RMK A01 T02820200  RH  065%=      5-min Rain = 0
KHA1 200250Z 07005KT 28/20 A2973 RMK A01 T02790201  RH  066%=      5-min Rain = 0
KHA1 200255Z 07005KT 28/20 A2973 RMK A01 T02760201  RH  067%=      5-min Rain = 0
KHA1 200300Z 07005KT 28/20 A2973 RMK A01 T02750199  RH  067%=      5-min Rain = 0
KHA1 200305Z 08005KT 27/20 A2973 RMK A01 T02730199  RH  068%=      5-min Rain = 0
KHA1 200310Z 09005KT 27/20 A2973 RMK A01 T02740199  RH  068%=      5-min Rain = 0
KHA1 200315Z 10004KT 28/20 A2974 RMK A01 T02760198  RH  066%=      5-min Rain = 0
KHA1 200320Z 09004KT 28/20 A2974 RMK A01 T02750199  RH  067%=      5-min Rain = 0
KHA1 200325Z 08004KT 27/20 A2974 RMK A01 T02740200  RH  068%=      5-min Rain = 0
KHA1 200330Z 09004KT 27/20 A2974 RMK A01 T02730200  RH  069%=      5-min Rain = 0
KHA1 200335Z 10004KT 27/20 A2974 RMK A01 T02720200  RH  068%=      5-min Rain = 0
KHA1 200340Z 09004KT 27/20 A2975 RMK A01 T02720199  RH  068%=      5-min Rain = 0
KHA1 200345Z 07004KT 27/20 A2975 RMK A01 T02710200  RH  069%=      5-min Rain = 0
KHA1 200350Z 08004KT 27/20 A2975 RMK A01 T02670200  RH  071%=      5-min Rain = 0
KHA1 200355Z 08004KT 27/20 A2976 RMK A01 T02650201  RH  072%=      5-min Rain = 0
KHA1 200400Z 09004KT 27/20 A2976 RMK A01 T02650202  RH  072%=      5-min Rain = 0
KHA1 200405Z 09003KT 27/20 A2976 RMK A01 T02650201  RH  072%=      5-min Rain = 0
KHA1 200410Z 08003KT 26/20 A2977 RMK A01 T02640202  RH  073%=      5-min Rain = 0
KHA1 200415Z 08003KT 26/20 A2977 RMK A01 T02620203  RH  074%=      5-min Rain = 0
KHA1 200420Z 09004KT 26/20 A2977 RMK A01 T02610204  RH  075%=      5-min Rain = 0
KHA1 200425Z 10004KT 26/20 A2977 RMK A01 T02610204  RH  075%=      5-min Rain = 0
KHA1 200430Z 11004KT 26/20 A2977 RMK A01 T02600204  RH  075%=      5-min Rain = 0
KHA1 200435Z 10004KT 26/20 A2977 RMK A01 T02580203  RH  076%=      5-min Rain = 0
KHA1 200440Z 09004KT 26/20 A2977 RMK A01 T02570203  RH  076%=      5-min Rain = 0
KHA1 200445Z 10003KT 26/20 A2977 RMK A01 T02570203  RH  077%=      5-min Rain = 0
KHA1 200450Z 12004KT 26/20 A2977 RMK A01 T02550202  RH  077%=      5-min Rain = 0
KHA1 200455Z 10003KT 25/20 A2977 RMK A01 T02530202  RH  078%=      5-min Rain = 0

Page generated in 0.0391 seconds.